createdAt,value
2019-06-07T00:00:53.283Z,2.90
2019-06-07T00:03:29.487Z,2.50
2019-06-07T00:05:55.538Z,2.50
2019-06-07T00:08:28.854Z,2.47
2019-06-07T00:10:56.843Z,3.70
2019-06-07T00:13:27.813Z,3.40
2019-06-07T00:15:57.674Z,2.67
2019-06-07T00:18:30.924Z,2.80
2019-06-07T00:21:10.135Z,3.00
2019-06-07T00:23:40.407Z,2.90
2019-06-07T00:26:10.882Z,3.27
2019-06-07T00:28:41.652Z,3.00
2019-06-07T00:31:14.219Z,2.40
2019-06-07T00:33:43.498Z,3.67
2019-06-07T00:36:14.693Z,2.60
2019-06-07T00:38:45.269Z,2.83
2019-06-07T00:41:18.866Z,2.80
2019-06-07T00:43:47.242Z,3.23
2019-06-07T00:46:18.744Z,3.07
2019-06-07T00:48:48.618Z,2.83
2019-06-07T00:51:19.618Z,3.30
2019-06-07T00:53:50.788Z,3.40
2019-06-07T00:56:22.214Z,3.57
2019-06-07T00:59:10.253Z,3.27
2019-06-07T01:01:25.516Z,3.80
2019-06-07T01:03:55.652Z,3.10
2019-06-07T01:06:25.445Z,3.40
2019-06-07T01:08:55.783Z,3.13
2019-06-07T01:11:26.272Z,2.97
2019-06-07T01:13:56.645Z,3.40
2019-06-07T01:16:26.877Z,3.47
2019-06-07T01:18:57.101Z,3.27
2019-06-07T01:21:29.334Z,3.43
2019-06-07T01:24:11.421Z,3.03
2019-06-07T01:26:31.337Z,3.07
2019-06-07T01:29:01.605Z,3.47
2019-06-07T01:31:32.002Z,3.00
2019-06-07T01:34:02.551Z,3.10
2019-06-07T01:36:32.342Z,2.90
2019-06-07T01:39:02.673Z,3.37
2019-06-07T01:41:32.520Z,3.30
2019-06-07T01:44:03.142Z,3.07
2019-06-07T01:46:32.981Z,3.40
2019-06-07T01:49:03.140Z,3.27
2019-06-07T01:51:32.961Z,3.50
2019-06-07T01:54:48.541Z,3.50
2019-06-07T01:56:34.598Z,3.90
2019-06-07T01:59:04.418Z,2.97
2019-06-07T02:01:35.261Z,3.03
2019-06-07T02:04:06.027Z,3.27
2019-06-07T02:06:35.946Z,3.10
2019-06-07T02:09:07.378Z,3.37
2019-06-07T02:11:37.688Z,3.23
2019-06-07T02:14:07.987Z,3.57
2019-06-07T02:16:37.813Z,3.00
2019-06-07T02:19:07.662Z,3.23
2019-06-07T02:21:37.422Z,3.30
2019-06-07T02:24:07.246Z,3.37
2019-06-07T02:26:37.610Z,3.37
2019-06-07T02:29:07.452Z,3.70
2019-06-07T02:31:39.798Z,3.07
2019-06-07T02:34:08.735Z,2.97
2019-06-07T02:36:41.581Z,3.30
2019-06-07T02:39:10.031Z,3.77
2019-06-07T02:41:40.455Z,3.30
2019-06-07T02:44:11.030Z,3.43
2019-06-07T02:46:48.957Z,3.70
2019-06-07T02:49:12.321Z,3.73
2019-06-07T02:51:42.183Z,4.10
2019-06-07T02:54:12.040Z,3.37
2019-06-07T02:56:56.260Z,3.63
2019-06-07T02:59:15.279Z,3.40
2019-06-07T03:01:45.109Z,3.70
2019-06-07T03:04:15.033Z,3.83
2019-06-07T03:06:44.886Z,3.07
2019-06-07T03:09:14.687Z,3.67
2019-06-07T03:11:44.546Z,3.60
2019-06-07T03:14:14.886Z,4.17
2019-06-07T03:16:50.705Z,4.37
2019-06-07T03:19:34.727Z,4.03
2019-06-07T03:22:03.260Z,4.60
2019-06-07T03:24:36.264Z,3.60
2019-06-07T03:29:36.770Z,3.57
2019-06-07T03:32:07.505Z,3.93
2019-06-07T03:34:40.951Z,3.43
2019-06-07T03:37:09.881Z,3.30
2019-06-07T03:39:41.161Z,3.63
2019-06-07T03:42:11.120Z,3.47
2019-06-07T03:44:41.637Z,4.40
2019-06-07T03:47:11.636Z,4.20
2019-06-07T03:49:42.619Z,3.43
2019-06-07T03:52:12.773Z,5.30
2019-06-07T03:54:42.561Z,4.23
2019-06-07T03:57:12.413Z,3.53
2019-06-07T03:59:42.246Z,3.83
2019-06-07T04:02:12.075Z,3.63
2019-06-07T04:04:42.307Z,3.50
2019-06-07T04:07:12.652Z,4.00
2019-06-07T04:09:43.279Z,3.33
2019-06-07T04:12:13.785Z,3.73
2019-06-07T04:14:44.042Z,4.73
2019-06-07T04:17:14.007Z,9.90
2019-06-07T04:19:43.949Z,5.40
2019-06-07T04:22:13.778Z,3.90
2019-06-07T04:24:44.538Z,3.77
2019-06-07T04:27:14.891Z,4.27
2019-06-07T04:30:05.877Z,4.53
2019-06-07T04:32:16.140Z,4.10
2019-06-07T04:34:46.329Z,4.80
2019-06-07T04:37:16.158Z,4.10
2019-06-07T04:39:46.467Z,4.10
2019-06-07T04:42:16.441Z,4.63
2019-06-07T04:44:46.353Z,4.30
2019-06-07T04:47:16.532Z,5.00
2019-06-07T04:49:46.863Z,4.73
2019-06-07T04:52:17.077Z,4.37
2019-06-07T04:54:46.900Z,4.83
2019-06-07T04:57:17.112Z,5.00
2019-06-07T05:00:11.921Z,5.47
2019-06-07T05:02:19.070Z,4.67
2019-06-07T05:04:48.907Z,4.73
2019-06-07T05:07:19.210Z,4.73
2019-06-07T05:09:49.046Z,4.60
2019-06-07T05:12:18.926Z,5.00
2019-06-07T05:14:49.326Z,5.07
2019-06-07T05:17:19.198Z,5.03
2019-06-07T05:19:49.097Z,5.17
2019-06-07T05:22:18.892Z,5.00
2019-06-07T05:24:49.437Z,4.90
2019-06-07T05:27:19.230Z,4.70
2019-06-07T05:30:08.771Z,5.00
2019-06-07T05:32:20.967Z,5.40
2019-06-07T05:34:51.184Z,5.53
2019-06-07T05:37:20.987Z,5.27
2019-06-07T05:39:50.861Z,5.50
2019-06-07T05:42:20.691Z,5.33
2019-06-07T05:44:51.085Z,5.17
2019-06-07T05:47:21.349Z,5.13
2019-06-07T05:49:51.975Z,4.80
2019-06-07T05:52:21.838Z,4.73
2019-06-07T05:54:52.166Z,4.73
2019-06-07T05:57:21.992Z,6.00
2019-06-07T05:59:52.979Z,5.20
2019-06-07T06:02:24.869Z,5.20
2019-06-07T06:04:54.594Z,5.13
2019-06-07T06:07:24.418Z,4.60
2019-06-07T06:09:54.315Z,4.93
2019-06-07T06:12:34.575Z,5.30
2019-06-07T06:14:55.996Z,6.60
2019-06-07T06:17:25.835Z,5.13
2019-06-07T06:19:56.096Z,4.67
2019-06-07T06:22:26.444Z,5.57
2019-06-07T06:28:03.578Z,4.90
2019-06-07T06:29:59.294Z,5.00
2019-06-07T06:32:53.116Z,4.87
2019-06-07T06:35:00.587Z,4.53
2019-06-07T06:37:30.399Z,4.70
2019-06-07T06:40:00.284Z,4.80
2019-06-07T06:42:30.972Z,4.63
2019-06-07T06:45:00.811Z,4.60
2019-06-07T06:47:30.614Z,5.37
2019-06-07T06:50:02.547Z,5.47
2019-06-07T06:52:32.405Z,6.20
2019-06-07T06:55:02.579Z,4.07
2019-06-07T06:57:32.822Z,4.10
2019-06-07T07:00:03.765Z,4.87
2019-06-07T07:02:33.931Z,4.90
2019-06-07T07:05:04.390Z,4.40
2019-06-07T07:07:34.573Z,4.10
2019-06-07T07:10:05.470Z,4.07
2019-06-07T07:12:35.294Z,3.93
2019-06-07T07:15:07.479Z,4.50
2019-06-07T07:17:50.679Z,3.90
2019-06-07T07:20:09.229Z,5.33
2019-06-07T07:22:39.073Z,3.83
2019-06-07T07:25:10.629Z,4.67
2019-06-07T07:27:40.492Z,4.10
2019-06-07T07:30:36.039Z,4.50
2019-06-07T07:32:45.621Z,4.30
2019-06-07T07:35:14.283Z,3.43
2019-06-07T07:37:46.173Z,3.57
2019-06-07T07:42:49.626Z,4.23
2019-06-07T07:45:19.358Z,4.30
2019-06-07T07:48:01.827Z,4.87
2019-06-07T07:50:22.314Z,3.80
2019-06-07T07:52:59.196Z,3.67
2019-06-07T07:55:23.680Z,3.97
2019-06-07T07:58:01.197Z,3.67
2019-06-07T08:00:50.034Z,3.63
2019-06-07T08:03:01.585Z,4.47
2019-06-07T08:05:42.003Z,4.40
2019-06-07T08:08:04.753Z,4.10
2019-06-07T08:10:31.908Z,4.20
2019-06-07T08:13:23.630Z,4.13
2019-06-07T08:15:34.373Z,3.73
2019-06-07T08:18:05.179Z,4.53
2019-06-07T08:20:35.488Z,3.70
2019-06-07T08:23:05.357Z,3.23
2019-06-07T08:25:35.157Z,4.73
2019-06-07T08:28:05.231Z,3.43
2019-06-07T08:30:49.880Z,3.63
2019-06-07T08:33:25.352Z,3.70
2019-06-07T08:38:26.003Z,3.50
2019-06-07T08:40:43.861Z,3.43
2019-06-07T08:43:20.604Z,3.23
2019-06-07T08:45:46.594Z,3.17
2019-06-07T08:48:27.605Z,2.93
2019-06-07T08:50:48.061Z,3.73
2019-06-07T08:53:18.190Z,3.03
2019-06-07T08:55:48.166Z,2.93
2019-06-07T08:58:18.194Z,4.17
2019-06-07T09:00:48.792Z,3.30
2019-06-07T09:03:18.922Z,3.73
2019-06-07T09:05:48.932Z,3.50
2019-06-07T09:08:29.955Z,4.10
2019-06-07T09:10:50.736Z,3.53
2019-06-07T09:13:20.708Z,3.20
2019-06-07T09:15:50.706Z,2.83
2019-06-07T09:18:42.944Z,2.73
2019-06-07T09:20:52.175Z,2.40
2019-06-07T09:23:22.109Z,2.43
2019-06-07T09:26:01.317Z,2.23
2019-06-07T09:28:24.067Z,4.10
2019-06-07T09:30:54.379Z,2.47
2019-06-07T09:33:24.250Z,5.50
2019-06-07T09:35:56.224Z,2.83
2019-06-07T09:38:26.964Z,2.73
2019-06-07T09:40:59.735Z,2.13
2019-06-07T09:46:08.998Z,2.97
2019-06-07T09:49:12.178Z,2.43
2019-06-07T09:51:07.429Z,2.13
2019-06-07T09:53:36.312Z,1.97
2019-06-07T09:56:08.974Z,2.10
2019-06-07T09:58:54.326Z,2.27
2019-06-07T10:01:13.512Z,1.97
2019-06-07T10:03:41.818Z,1.90
2019-06-07T10:06:13.574Z,2.20
2019-06-07T10:11:17.275Z,2.03
2019-06-07T10:13:47.330Z,1.90
2019-06-07T10:16:17.223Z,1.70
2019-06-07T10:18:47.941Z,2.80
2019-06-07T10:21:17.845Z,2.03
2019-06-07T10:23:49.184Z,2.23
2019-06-07T10:26:19.563Z,1.77
2019-06-07T10:28:53.209Z,1.83
2019-06-07T10:31:21.189Z,1.87
2019-06-07T10:33:51.364Z,1.80
2019-06-07T10:36:21.560Z,1.83
2019-06-07T10:38:51.415Z,2.07
2019-06-07T10:41:21.690Z,2.43
2019-06-07T10:43:51.912Z,1.80
2019-06-07T10:46:21.755Z,1.73
2019-06-07T10:48:51.942Z,1.80
2019-06-07T10:51:22.321Z,1.93
2019-06-07T10:53:52.695Z,2.30
2019-06-07T10:56:22.535Z,1.70
2019-06-07T10:58:52.728Z,1.90
2019-06-07T11:01:22.992Z,2.63
2019-06-07T11:03:53.183Z,1.87
2019-06-07T11:06:23.426Z,1.90
2019-06-07T11:08:53.232Z,2.20
2019-06-07T11:11:23.047Z,4.80
2019-06-07T11:13:52.851Z,2.20
2019-06-07T11:16:22.792Z,3.37
2019-06-07T11:18:53.998Z,1.83
2019-06-07T11:21:25.149Z,2.13
2019-06-07T11:23:55.826Z,1.93
2019-06-07T11:26:27.476Z,2.00
2019-06-07T11:28:58.815Z,1.80
2019-06-07T11:31:29.596Z,1.80
2019-06-07T11:34:03.311Z,2.03
2019-06-07T11:36:33.608Z,1.90
2019-06-07T11:39:06.390Z,2.07
2019-06-07T11:41:37.084Z,2.30
2019-06-07T11:44:06.923Z,1.90
2019-06-07T11:46:37.212Z,2.33
2019-06-07T11:49:08.168Z,2.20
2019-06-07T11:51:38.580Z,1.80
2019-06-07T11:54:09.695Z,2.30
2019-06-07T11:56:39.543Z,1.90
2019-06-07T11:59:09.398Z,2.00
2019-06-07T12:01:39.642Z,2.93
2019-06-07T12:04:09.948Z,2.30
2019-06-07T12:06:40.118Z,1.90
2019-06-07T12:09:10.619Z,1.80
2019-06-07T12:11:41.069Z,1.80
2019-06-07T12:14:12.801Z,2.20
2019-06-07T12:16:43.374Z,1.70
2019-06-07T12:19:13.626Z,1.97
2019-06-07T12:21:44.546Z,2.10
2019-06-07T12:24:16.104Z,2.07
2019-06-07T12:26:46.137Z,1.97
2019-06-07T12:29:17.197Z,2.50
2019-06-07T12:31:47.263Z,2.40
2019-06-07T12:34:17.471Z,2.40
2019-06-07T12:36:48.078Z,2.00
2019-06-07T12:39:19.921Z,2.10
2019-06-07T12:41:50.636Z,3.97
2019-06-07T12:44:20.904Z,3.50
2019-06-07T12:46:51.256Z,3.53
2019-06-07T12:49:21.192Z,3.27
2019-06-07T12:51:51.367Z,2.40
2019-06-07T12:54:21.719Z,2.17
2019-06-07T12:56:52.436Z,2.47
2019-06-07T12:59:22.423Z,2.30
2019-06-07T13:01:53.234Z,2.50
2019-06-07T13:04:23.097Z,3.17
2019-06-07T13:06:52.878Z,2.90
2019-06-07T13:09:23.918Z,3.00
2019-06-07T13:11:54.696Z,4.53
2019-06-07T13:14:25.082Z,3.63
2019-06-07T13:16:55.516Z,4.67
2019-06-07T13:19:25.438Z,3.47
2019-06-07T13:21:56.324Z,2.80
2019-06-07T13:24:28.720Z,1.95
2019-06-07T13:26:59.269Z,2.58
2019-06-07T13:29:34.483Z,2.20
2019-06-07T13:32:05.014Z,2.00
2019-06-07T13:34:35.187Z,2.47
2019-06-07T13:37:05.388Z,2.30
2019-06-07T13:39:35.623Z,2.50
2019-06-07T13:42:05.787Z,2.42
2019-06-07T13:44:35.635Z,2.40
2019-06-07T13:47:05.959Z,2.55
2019-06-07T13:49:37.050Z,3.27
2019-06-07T13:52:07.221Z,2.02
2019-06-07T13:54:37.100Z,2.50
2019-06-07T13:57:07.329Z,2.15
2019-06-07T13:59:37.597Z,2.45
2019-06-07T14:02:07.526Z,2.35
2019-06-07T14:04:37.480Z,2.50
2019-06-07T14:07:07.753Z,2.40
2019-06-07T14:09:37.562Z,2.27
2019-06-07T14:12:07.431Z,2.67
2019-06-07T14:14:38.468Z,2.52
2019-06-07T14:17:08.335Z,2.60
2019-06-07T14:19:38.135Z,2.85
2019-06-07T14:22:07.997Z,2.47
2019-06-07T14:24:37.801Z,2.40
2019-06-07T14:27:08.339Z,2.50
2019-06-07T14:29:38.358Z,2.40
2019-06-07T14:32:09.493Z,2.27
2019-06-07T14:34:39.900Z,2.50
2019-06-07T14:37:09.746Z,2.08
2019-06-07T14:39:39.552Z,2.40
2019-06-07T14:42:10.473Z,2.45
2019-06-07T14:44:40.603Z,2.22
2019-06-07T14:47:11.450Z,2.45
2019-06-07T14:49:42.697Z,2.60
2019-06-07T14:52:12.551Z,2.22
2019-06-07T14:54:43.130Z,2.40
2019-06-07T14:57:13.881Z,2.22
2019-06-07T14:59:44.167Z,2.10
2019-06-07T15:02:14.444Z,2.15
2019-06-07T15:04:44.258Z,2.25
2019-06-07T15:07:17.052Z,1.95
2019-06-07T15:09:46.857Z,2.22
2019-06-07T15:12:25.161Z,1.92
2019-06-07T15:14:50.589Z,2.05
2019-06-07T15:17:20.989Z,2.60
2019-06-07T15:19:50.849Z,2.45
2019-06-07T15:22:20.824Z,2.17
2019-06-07T15:24:50.645Z,2.22
2019-06-07T15:27:27.214Z,2.00
2019-06-07T15:29:58.024Z,2.30
2019-06-07T15:32:32.772Z,2.20
2019-06-07T15:35:04.711Z,4.22
2019-06-07T15:37:36.597Z,2.12
2019-06-07T15:40:09.608Z,2.37
2019-06-07T15:42:52.042Z,2.33
2019-06-07T15:45:24.091Z,2.45
2019-06-07T15:47:54.783Z,2.37
2019-06-07T15:50:28.635Z,2.10
2019-06-07T15:53:04.345Z,2.35
2019-06-07T15:55:43.617Z,2.50
2019-06-07T15:58:21.029Z,2.08
2019-06-07T16:00:52.268Z,3.77
2019-06-07T16:03:26.251Z,2.22
2019-06-07T16:05:57.469Z,2.25
2019-06-07T16:08:28.792Z,2.33
2019-06-07T16:10:59.484Z,2.12
2019-06-07T16:13:36.625Z,1.90
2019-06-07T16:16:14.173Z,2.10
2019-06-07T16:18:45.264Z,1.90
2019-06-07T16:21:16.022Z,1.85
2019-06-07T16:23:50.678Z,2.20
2019-06-07T16:26:24.694Z,2.67
2019-06-07T16:28:57.327Z,7.78
2019-06-07T16:31:35.184Z,7.47
2019-06-07T16:34:09.236Z,7.35
2019-06-07T16:36:40.373Z,4.92
2019-06-07T16:39:14.096Z,3.87
2019-06-07T16:41:48.918Z,3.35
2019-06-07T16:44:23.529Z,2.45
2019-06-07T16:46:56.959Z,3.47
2019-06-07T16:49:36.970Z,2.55
2019-06-07T16:52:08.926Z,3.33
2019-06-07T16:54:41.355Z,1.77
2019-06-07T16:57:12.837Z,2.35
2019-06-07T16:59:47.757Z,2.33
2019-06-07T17:02:19.945Z,2.85
2019-06-07T17:04:54.131Z,4.72
2019-06-07T17:07:25.389Z,4.35
2019-06-07T17:09:56.601Z,4.22
2019-06-07T17:12:30.928Z,4.05
2019-06-07T17:15:05.452Z,4.47
2019-06-07T17:17:36.645Z,3.25
2019-06-07T17:20:11.325Z,3.72
2019-06-07T17:22:43.909Z,3.45
2019-06-07T17:25:14.466Z,2.77
2019-06-07T17:27:48.260Z,2.22
2019-06-07T17:30:21.691Z,2.50
2019-06-07T17:32:59.032Z,2.05
2019-06-07T17:35:27.826Z,2.60
2019-06-07T17:38:04.750Z,3.17
2019-06-07T17:40:38.483Z,2.02
2019-06-07T17:43:10.006Z,2.17
2019-06-07T17:45:45.388Z,2.65
2019-06-07T17:48:15.905Z,1.98
2019-06-07T17:50:50.390Z,2.10
2019-06-07T17:53:21.134Z,2.15
2019-06-07T17:55:58.798Z,2.50
2019-06-07T17:58:36.849Z,2.30
2019-06-07T18:01:16.440Z,2.25
2019-06-07T18:03:51.298Z,3.15
2019-06-07T18:06:25.056Z,2.50
2019-06-07T18:08:55.711Z,2.50
2019-06-07T18:11:29.975Z,2.60
2019-06-07T18:14:10.305Z,3.25
2019-06-07T18:16:36.031Z,2.58
2019-06-07T18:19:07.728Z,2.08
2019-06-07T18:21:38.498Z,4.10
2019-06-07T18:24:09.219Z,6.20
2019-06-07T18:26:42.774Z,2.85
2019-06-07T18:29:13.801Z,2.30
2019-06-07T18:31:48.718Z,2.67
2019-06-07T18:34:19.275Z,3.02
2019-06-07T18:36:51.065Z,2.40
2019-06-07T18:39:21.880Z,2.17
2019-06-07T18:41:53.326Z,2.70
2019-06-07T18:44:24.174Z,2.22
2019-06-07T18:47:00.664Z,2.43
2019-06-07T18:49:31.743Z,2.80
2019-06-07T18:52:21.706Z,2.58
2019-06-07T18:54:52.963Z,2.02
2019-06-07T18:57:26.916Z,2.87
2019-06-07T18:59:58.886Z,2.75
2019-06-07T19:02:29.483Z,2.70
2019-06-07T19:05:06.660Z,2.30
2019-06-07T19:07:38.654Z,2.37
2019-06-07T19:10:10.721Z,2.17
2019-06-07T19:12:42.114Z,2.93
2019-06-07T19:15:12.728Z,2.63
2019-06-07T19:17:49.744Z,2.37
2019-06-07T19:20:24.107Z,2.20
2019-06-07T19:23:03.651Z,2.80
2019-06-07T19:25:38.012Z,2.47
2019-06-07T19:28:12.117Z,2.60
2019-06-07T19:30:43.638Z,3.00
2019-06-07T19:33:14.298Z,2.50
2019-06-07T19:35:49.174Z,4.22
2019-06-07T19:38:23.147Z,3.00
2019-06-07T19:40:55.868Z,3.73
2019-06-07T19:43:32.302Z,2.80
2019-06-07T19:46:05.870Z,2.70
2019-06-07T19:48:42.035Z,2.50
2019-06-07T19:51:15.550Z,3.17
2019-06-07T19:53:47.307Z,3.27
2019-06-07T19:56:18.093Z,2.90
2019-06-07T19:58:51.225Z,4.90
2019-06-07T20:01:25.783Z,2.30
2019-06-07T20:04:00.514Z,3.00
2019-06-07T20:06:32.976Z,7.60
2019-06-07T20:09:04.865Z,6.10
2019-06-07T20:11:36.244Z,2.13
2019-06-07T20:14:10.189Z,1.83
2019-06-07T20:16:42.474Z,3.47
2019-06-07T20:19:13.074Z,2.27
2019-06-07T20:21:45.059Z,4.73
2019-06-07T20:24:26.396Z,4.63
2019-06-07T20:26:48.399Z,3.03
2019-06-07T20:29:25.994Z,2.20
2019-06-07T20:31:56.115Z,1.33
2019-06-07T20:34:27.509Z,3.03
2019-06-07T20:36:58.288Z,2.53
2019-06-07T20:39:29.272Z,1.47
2019-06-07T20:42:01.236Z,2.07
2019-06-07T20:44:32.036Z,3.83
2019-06-07T20:47:06.150Z,1.17
2019-06-07T20:49:36.984Z,0.60
2019-06-07T20:52:08.651Z,1.73
2019-06-07T20:54:40.002Z,1.10
2019-06-07T20:57:13.399Z,1.90
2019-06-07T20:59:44.209Z,0.73
2019-06-07T21:02:17.860Z,0.93
2019-06-07T21:04:52.919Z,1.27
2019-06-07T21:07:32.134Z,0.73
2019-06-07T21:10:11.509Z,1.43
2019-06-07T21:12:42.023Z,2.33
2019-06-07T21:15:15.295Z,0.77
2019-06-07T21:17:46.663Z,0.90
2019-06-07T21:20:17.251Z,1.07
2019-06-07T21:22:48.105Z,1.13
2019-06-07T21:25:19.028Z,0.97
2019-06-07T21:27:50.446Z,0.77
2019-06-07T21:30:24.570Z,1.13
2019-06-07T21:33:07.649Z,1.50
2019-06-07T21:35:38.716Z,1.30
2019-06-07T21:38:09.929Z,5.63
2019-06-07T21:40:41.708Z,0.73
2019-06-07T21:43:12.762Z,1.83
2019-06-07T21:45:43.843Z,0.67
2019-06-07T21:48:15.411Z,0.87
2019-06-07T21:50:46.240Z,1.43
2019-06-07T21:53:16.804Z,0.83
2019-06-07T21:55:51.380Z,0.93
2019-06-07T21:58:27.870Z,0.67
2019-06-07T22:01:31.351Z,0.60
2019-06-07T22:04:03.367Z,2.60
2019-06-07T22:06:35.741Z,0.50
2019-06-07T22:09:11.994Z,2.10
2019-06-07T22:11:42.847Z,1.83
2019-06-07T22:14:19.636Z,0.80
2019-06-07T22:16:54.488Z,0.50
2019-06-07T22:19:32.004Z,0.60
2019-06-07T22:22:03.759Z,0.93
2019-06-07T22:24:41.138Z,1.00
2019-06-07T22:27:13.408Z,0.47
2019-06-07T22:29:47.101Z,0.60
2019-06-07T22:32:19.220Z,0.60
2019-06-07T22:34:49.914Z,0.40
2019-06-07T22:37:23.984Z,0.70
2019-06-07T22:39:57.252Z,2.47
2019-06-07T22:42:27.484Z,1.60
2019-06-07T22:44:57.288Z,0.50
2019-06-07T22:47:37.104Z,0.57
2019-06-07T22:50:08.746Z,1.17
2019-06-07T22:52:43.086Z,4.07
2019-06-07T22:55:18.199Z,0.57
2019-06-07T22:58:10.080Z,0.63
2019-06-07T23:00:43.705Z,0.90
2019-06-07T23:03:15.075Z,0.57
2019-06-07T23:05:45.792Z,0.43
2019-06-07T23:08:22.601Z,0.50
2019-06-07T23:10:56.459Z,0.50
2019-06-07T23:13:29.975Z,1.60
2019-06-07T23:16:03.316Z,2.40
2019-06-07T23:18:34.678Z,0.50
2019-06-07T23:21:06.185Z,1.20
2019-06-07T23:23:37.177Z,0.70
2019-06-07T23:26:12.101Z,1.20
2019-06-07T23:28:43.006Z,0.90
2019-06-07T23:31:18.507Z,1.03
2019-06-07T23:33:52.004Z,1.60
2019-06-07T23:36:26.221Z,0.60
2019-06-07T23:38:56.919Z,0.80
2019-06-07T23:41:27.649Z,1.33
2019-06-07T23:44:01.721Z,0.67
2019-06-07T23:46:32.886Z,0.77
2019-06-07T23:49:06.612Z,0.40
2019-06-07T23:51:40.341Z,1.13
2019-06-07T23:54:14.241Z,1.03
2019-06-07T23:56:48.369Z,0.40
2019-06-07T23:59:22.400Z,0.50
